Time;durP1;ratioP1;P1;durP2;ratioP2;P2;SDS_P1;SDS_P2;PMS_P1;PMS_P2;Temp;Humidity;BMP_temperature;BMP_pressure;BME280_temperature;BME280_humidity;BME280_pressure;Samples;Min_cycle;Max_cycle;Signal;HPM_P1;HPM_P2
2022/06/12 00:01:26;;;;;;;22.67;4.82;;;13.00;99.90;;;12.00;98.54;101771.53;4946553;28;20034;-73
2022/06/12 00:03:52;;;;;;;24.80;4.88;;;13.00;99.90;;;12.05;98.90;101768.72;4950944;28;20031;-73
2022/06/12 00:06:20;;;;;;;22.00;4.38;;;13.10;99.90;;;12.08;98.96;101764.22;4951446;28;20057;-73
2022/06/12 00:08:45;;;;;;;17.02;4.20;;;13.10;99.90;;;12.06;98.63;101766.03;4938223;28;20049;-73
2022/06/12 00:11:16;;;;;;;21.73;4.88;;;13.10;99.90;;;12.04;99.11;101773.16;4947388;28;20031;-73
2022/06/12 00:13:52;;;;;;;23.83;5.30;;;13.10;99.90;;;12.02;99.12;101768.84;4945617;28;20022;-73
2022/06/12 00:16:20;;;;;;;23.95;4.70;;;13.00;99.90;;;11.99;99.50;101776.91;4952441;28;20485;-73
2022/06/12 00:18:46;;;;;;;14.88;3.67;;;13.00;99.90;;;11.98;99.34;101772.50;4950582;28;20129;-73
2022/06/12 00:21:13;;;;;;;27.15;5.13;;;13.00;99.90;;;11.97;100.00;101771.66;4947588;28;20038;-73
2022/06/12 00:23:55;;;;;;;18.45;4.15;;;13.00;99.90;;;11.97;100.00;101771.66;4943686;28;20026;-73
2022/06/12 00:26:32;;;;;;;16.20;3.67;;;13.00;99.90;;;11.90;100.00;101775.44;4949292;28;20546;-73
2022/06/12 00:29:02;;;;;;;35.35;5.47;;;12.90;99.90;;;11.86;100.00;101774.66;4950484;28;20083;-73
2022/06/12 00:31:29;;;;;;;12.60;3.72;;;12.90;99.90;;;11.81;100.00;101766.00;4939566;28;20049;-73
2022/06/12 00:33:55;;;;;;;21.75;4.13;;;12.80;99.90;;;11.77;100.00;101768.81;4950164;28;20027;-73
2022/06/12 00:36:21;;;;;;;15.68;4.22;;;12.80;99.90;;;11.73;100.00;101776.00;4945982;28;20035;-73
2022/06/12 00:38:47;;;;;;;18.95;4.65;;;12.80;99.90;;;11.69;100.00;101767.31;4938378;28;20034;-74
2022/06/12 00:41:13;;;;;;;20.70;4.53;;;12.70;99.90;;;11.70;100.00;101768.16;4959283;28;20574;-73
2022/06/12 00:43:39;;;;;;;21.58;4.38;;;12.70;99.90;;;11.74;100.00;101768.94;4947901;28;20077;-73
2022/06/12 00:46:06;;;;;;;24.25;5.05;;;12.80;99.90;;;11.80;100.00;101766.09;4937927;28;20038;-73
2022/06/12 00:48:38;;;;;;;23.83;5.75;;;12.80;99.90;;;11.87;100.00;101759.66;4933095;28;21213;-73
2022/06/12 00:51:11;;;;;;;31.00;8.18;;;12.90;99.90;;;11.95;100.00;101752.38;4931205;28;20030;-73
2022/06/12 00:53:56;;;;;;;33.80;7.38;;;13.00;99.90;;;12.07;100.00;101751.06;4960114;28;20031;-74
2022/06/12 00:56:32;;;;;;;30.80;6.75;;;13.10;99.90;;;12.16;100.00;101760.41;4949150;28;20038;-73
2022/06/12 00:59:14;;;;;;;36.05;6.95;;;13.10;99.90;;;12.24;100.00;101746.00;4947034;28;20026;-73
2022/06/12 01:01:47;;;;;;;37.58;7.50;;;13.30;99.90;;;12.29;100.00;101749.38;4934822;28;20042;-74
2022/06/12 01:07:03;;;;;;;24.30;4.93;;;13.30;99.90;;;12.32;100.00;101757.16;4963593;28;20073;-73
2022/06/12 01:09:36;;;;;;;26.50;6.13;;;13.30;99.90;;;12.28;100.00;101760.81;4940204;28;20529;-73
2022/06/12 01:12:05;;;;;;;25.75;5.30;;;13.30;99.90;;;12.15;100.00;101770.13;4929663;28;20030;-73
2022/06/12 01:14:36;;;;;;;10.43;3.55;;;13.10;99.90;;;12.04;100.00;101767.88;4947815;28;20073;-73
2022/06/12 01:17:04;;;;;;;8.82;2.80;;;13.10;99.90;;;11.98;100.00;101769.88;4947865;28;20041;-73
2022/06/12 01:19:40;;;;;;;14.82;3.65;;;13.00;99.90;;;11.96;100.00;101767.28;4946851;28;20042;-73
2022/06/12 01:22:36;;;;;;;18.52;4.80;;;13.00;99.90;;;11.97;100.00;101763.75;4945614;28;20038;-74
2022/06/12 01:26:02;;;;;;;21.55;6.13;;;13.00;99.90;;;11.99;100.00;101759.28;4965023;28;20521;-73
2022/06/12 01:29:00;;;;;;;19.02;4.88;;;13.00;99.90;;;12.02;100.00;101763.56;4966151;28;20061;-73
2022/06/12 01:32:17;;;;;;;26.80;5.60;;;13.00;99.90;;;12.05;100.00;101764.34;4963511;28;20494;-73
2022/06/12 01:35:03;;;;;;;18.35;4.55;;;13.00;99.90;;;12.08;100.00;101758.94;4967861;28;20033;-73
2022/06/12 01:38:01;;;;;;;23.15;4.88;;;13.10;99.90;;;12.14;100.00;101764.88;4969576;28;20026;-73
2022/06/12 01:40:39;;;;;;;26.02;5.57;;;13.10;99.90;;;12.16;100.00;101760.41;4938483;28;20043;-73
2022/06/12 01:43:11;;;;;;;29.63;6.50;;;13.10;99.90;;;12.19;100.00;101762.97;4945650;28;20045;-73
2022/06/12 01:45:59;;;;;;;38.03;6.40;;;13.20;99.90;;;12.23;100.00;101761.94;4961387;28;20126;-73
2022/06/12 01:48:43;;;;;;;26.25;5.80;;;13.20;99.90;;;12.26;100.00;101756.53;4962648;28;20031;-73
2022/06/12 01:51:14;;;;;;;29.25;6.40;;;13.20;99.90;;;12.28;100.00;101752.91;4966315;28;20247;-72
2022/06/12 01:54:23;;;;;;;31.08;5.07;;;13.30;99.90;;;12.26;100.00;101756.53;4965089;28;20478;-73
2022/06/12 01:57:22;;;;;;;23.60;4.82;;;13.20;99.90;;;12.20;100.00;101759.38;4945827;28;21760;-73
2022/06/12 02:00:09;;;;;;;23.20;5.13;;;13.20;99.90;;;12.15;100.00;101753.44;4920829;28;20410;-73
2022/06/12 02:03:19;;;;;;;26.17;5.32;;;13.10;99.90;;;12.11;100.00;101753.53;4964441;28;20412;-73
2022/06/12 02:05:57;;;;;;;21.65;5.22;;;13.10;99.90;;;12.06;100.00;101752.84;4963433;28;20097;-73
2022/06/12 02:08:36;;;;;;;24.65;5.35;;;13.10;99.90;;;12.03;100.00;101752.09;4974923;28;20031;-73
2022/06/12 02:14:04;;;;;;;31.35;5.75;;;13.00;99.90;;;12.02;100.00;101753.00;4942645;28;20117;-74
2022/06/12 02:16:39;;;;;;;37.67;7.07;;;13.00;99.90;;;12.04;100.00;101745.91;4938868;28;20038;-72
2022/06/12 02:19:23;;;;;;;27.77;5.38;;;13.00;99.90;;;12.05;100.00;101753.78;4974969;28;20398;-73
2022/06/12 02:22:03;;;;;;;28.40;5.95;;;13.00;99.90;;;12.04;100.00;101749.41;4952783;28;20152;-74
2022/06/12 02:24:51;;;;;;;34.95;6.38;;;13.00;99.90;;;12.03;100.00;101745.06;4922674;28;20097;-73
2022/06/12 02:27:26;;;;;;;28.13;6.35;;;13.00;99.90;;;12.01;100.00;101752.16;4950917;28;20042;-74
2022/06/12 02:29:58;;;;;;;34.03;4.95;;;13.00;99.90;;;11.97;100.00;101744.41;4948224;28;20025;-74
2022/06/12 02:32:51;;;;;;;28.23;6.13;;;12.90;99.90;;;11.90;100.00;101744.63;4942462;28;20035;-73
2022/06/12 02:35:43;;;;;;;31.50;6.22;;;12.90;99.90;;;11.75;100.00;101723.16;4957423;28;20034;-74
2022/06/12 02:38:28;;;;;;;36.33;6.85;;;12.80;99.90;;;11.72;100.00;101721.50;4954431;28;20517;-74
2022/06/12 02:41:01;;;;;;;29.77;5.75;;;12.80;99.90;;;11.74;100.00;101727.56;4952494;28;20359;-74
2022/06/12 02:43:32;;;;;;;35.88;6.32;;;12.80;99.90;;;11.73;100.00;101725.88;4939384;28;20069;-74
2022/06/12 02:46:05;;;;;;;22.80;5.22;;;12.70;99.90;;;11.72;100.00;101724.13;4949175;28;20042;-74
2022/06/12 02:48:34;;;;;;;32.10;6.38;;;12.70;99.90;;;11.73;100.00;101725.88;4949092;28;20098;-73
2022/06/12 02:51:18;;;;;;;21.83;4.45;;;12.70;99.90;;;11.73;100.00;101725.88;4939232;28;20030;-73
2022/06/12 02:54:14;;;;;;;23.92;5.75;;;12.70;99.90;;;11.67;100.00;101729.56;4942326;28;20569;-73
2022/06/12 02:57:07;;;;;;;20.47;5.63;;;12.70;99.90;;;11.69;100.00;101732.16;4963649;28;20566;-74
2022/06/12 02:59:51;;;;;;;26.95;5.57;;;12.70;99.90;;;11.76;100.00;101740.72;4964981;28;20041;-73
2022/06/12 03:02:43;;;;;;;15.85;4.70;;;12.70;99.90;;;11.64;100.00;101753.44;4970182;28;20172;-74
2022/06/12 03:05:28;;;;;;;20.73;5.72;;;12.60;99.90;;;11.59;100.00;101722.84;4950127;28;20034;-74
2022/06/12 03:08:16;;;;;;;31.33;6.57;;;12.60;99.90;;;11.64;100.00;101718.25;4949647;28;20097;-74
2022/06/12 03:11:09;;;;;;;30.67;7.15;;;12.70;99.90;;;11.74;100.00;101721.44;4931203;28;20454;-73
2022/06/12 03:13:36;;;;;;;37.75;7.53;;;12.80;99.90;;;11.83;100.00;101718.47;4943307;28;20021;-73
2022/06/12 03:16:08;;;;;;;25.33;6.18;;;12.80;99.90;;;11.96;100.00;101719.78;4935546;28;20034;-73
2022/06/12 03:18:42;;;;;;;26.30;6.22;;;13.00;99.90;;;12.09;100.00;101725.47;4967729;28;20023;-74
2022/06/12 03:21:41;;;;;;;33.88;7.55;;;13.10;99.90;;;12.22;100.00;101728.50;4946952;28;20088;-73
2022/06/12 03:24:12;;;;;;;33.22;6.93;;;13.20;99.90;;;12.36;100.00;101726.22;4964910;28;20035;-73
2022/06/12 03:27:13;;;;;;;28.52;7.50;;;13.40;99.90;;;12.50;100.00;101725.69;4958571;28;20038;-73
2022/06/12 03:30:04;;;;;;;27.90;6.00;;;13.50;99.90;;;12.63;100.00;101736.63;4942327;28;20487;-73
2022/06/12 03:32:57;;;;;;;25.10;6.13;;;13.60;99.90;;;12.76;100.00;101732.56;4957279;28;20042;-73
2022/06/12 03:35:41;;;;;;;30.27;5.47;;;13.70;99.90;;;12.89;100.00;101728.53;4940371;28;20499;-73
2022/06/12 03:39:02;;;;;;;23.80;5.68;;;13.80;99.90;;;13.00;100.00;101729.88;4959298;28;20050;-73
2022/06/12 03:41:35;;;;;;;33.80;6.85;;;13.90;99.90;;;13.07;100.00;101734.88;4938933;28;20073;-74
2022/06/12 03:44:32;;;;;;;30.02;6.70;;;14.00;99.90;;;13.12;100.00;101737.31;4922183;28;20031;-73
2022/06/12 03:47:09;;;;;;;20.05;5.47;;;14.00;99.90;;;13.14;100.00;101728.38;4931822;28;20431;-74
2022/06/12 03:49:55;;;;;;;22.35;6.45;;;14.10;99.90;;;13.19;100.00;101727.34;4978718;28;20027;-73
2022/06/12 03:52:43;;;;;;;35.47;7.15;;;14.10;99.90;;;13.23;100.00;101719.22;4950763;28;20026;-73
2022/06/12 03:55:21;;;;;;;22.10;6.30;;;14.10;99.90;;;13.24;100.00;101725.34;4943849;28;20025;-73
2022/06/12 03:57:53;;;;;;;28.17;6.18;;;14.20;99.90;;;13.29;100.00;101734.00;4948738;28;20062;-73
2022/06/12 04:00:37;;;;;;;30.65;5.97;;;14.20;99.90;;;13.37;100.00;101745.13;4970753;28;20503;-73
2022/06/12 04:03:11;;;;;;;25.65;6.05;;;14.30;99.90;;;13.42;100.00;101739.66;4978426;28;20112;-73
2022/06/12 04:06:09;;;;;;;21.42;5.60;;;14.40;99.90;;;13.48;100.00;101729.66;4965478;28;20030;-73
2022/06/12 04:09:00;;;;;;;25.73;5.25;;;14.40;99.90;;;13.56;100.00;101731.94;4944682;28;20034;-73
2022/06/12 04:11:28;;;;;;;17.27;4.50;;;14.50;99.90;;;13.61;100.00;101730.00;4965018;28;20019;-73
2022/06/12 04:13:56;;;;;;;23.13;4.70;;;14.50;99.90;;;13.69;100.00;101725.22;4954634;28;20026;-74
2022/06/12 04:16:49;;;;;;;32.50;5.32;;;14.60;99.90;;;13.80;100.00;101731.81;4953038;28;20042;-73
2022/06/12 04:19:24;;;;;;;23.58;4.97;;;14.70;99.90;;;14.03;100.00;101728.16;4941946;28;20431;-74
2022/06/12 04:22:04;;;;;;;18.67;4.85;;;15.20;99.90;;;15.41;100.00;101744.59;4941713;28;20023;-73
2022/06/12 04:24:55;;;;;;;19.38;4.18;;;17.00;99.90;;;18.13;90.90;101754.16;4966470;28;20038;-74
2022/06/12 04:27:34;;;;;;;21.45;4.18;;;18.90;99.90;;;20.25;78.98;101761.47;4955863;28;20034;-73
2022/06/12 04:30:16;;;;;;;19.88;3.70;;;20.10;99.90;;;20.35;73.10;101768.84;4963406;28;20060;-74
2022/06/12 04:32:43;;;;;;;24.35;4.25;;;20.10;99.90;;;19.76;72.81;101772.94;4928611;28;20026;-74
2022/06/12 04:35:09;;;;;;;19.05;4.03;;;19.90;99.90;;;19.15;73.70;101772.53;4942997;28;20026;-74
2022/06/12 04:37:38;;;;;;;19.15;3.75;;;19.50;99.90;;;18.70;75.27;101768.38;4957315;28;20081;-74
2022/06/12 04:40:07;;;;;;;16.55;3.28;;;19.30;99.90;;;18.52;76.03;101762.41;4947629;28;20158;-74
2022/06/12 04:42:34;;;;;;;22.23;4.35;;;19.10;99.90;;;18.56;76.21;101767.44;4937184;28;20023;-73
2022/06/12 04:45:01;;;;;;;19.75;4.25;;;19.50;99.90;;;19.81;72.66;101781.50;4954984;28;20093;-74
2022/06/12 04:47:30;;;;;;;23.40;4.28;;;19.80;99.90;;;19.85;72.15;101783.00;4967240;28;20045;-74
2022/06/12 04:49:56;;;;;;;22.77;4.22;;;20.00;99.90;;;19.76;71.59;101772.06;4963721;28;20213;-74
2022/06/12 04:52:26;;;;;;;19.10;3.65;;;20.00;99.90;;;19.35;72.82;101776.59;4944984;28;20027;-74
2022/06/12 04:54:52;;;;;;;22.13;4.50;;;19.70;99.90;;;18.97;74.33;101784.44;4946657;28;20102;-74
2022/06/12 04:57:19;;;;;;;26.05;5.10;;;19.50;99.90;;;18.46;75.98;101774.31;4963455;28;20031;-74
2022/06/12 04:59:47;;;;;;;27.70;5.28;;;19.10;99.90;;;18.04;77.19;101771.56;4951958;28;20454;-74
2022/06/12 05:02:13;;;;;;;28.05;4.43;;;18.80;99.90;;;17.77;78.26;101771.41;4962763;28;20035;-74
2022/06/12 05:04:40;;;;;;;21.27;4.97;;;18.60;99.90;;;17.60;80.06;101769.78;4955345;28;20060;-74
2022/06/12 05:07:07;;;;;;;19.58;4.93;;;18.40;99.90;;;17.49;81.92;101766.03;4938566;28;20058;-74
2022/06/12 05:09:37;;;;;;;27.95;4.93;;;18.30;99.90;;;17.34;84.06;101770.44;4944533;28;20030;-74
2022/06/12 05:12:03;;;;;;;27.08;5.55;;;18.20;99.90;;;17.19;85.50;101762.41;4942326;28;20031;-74
2022/06/12 05:14:29;;;;;;;28.13;4.85;;;18.10;99.90;;;17.07;85.90;101762.28;4946777;28;20101;-74
2022/06/12 05:17:03;;;;;;;22.60;5.43;;;17.90;99.90;;;17.05;85.64;101758.84;4944712;28;20030;-75
2022/06/12 05:19:35;;;;;;;22.45;4.97;;;18.40;99.90;;;19.86;77.91;101778.50;4944244;28;20023;-74
2022/06/12 05:22:03;;;;;;;20.38;4.45;;;19.30;99.90;;;21.42;70.26;101789.59;4941081;28;20023;-74
2022/06/12 05:24:30;;;;;;;18.92;3.60;;;21.00;99.90;;;24.38;60.02;101814.75;4949866;28;20077;-74
2022/06/12 05:26:57;;;;;;;21.08;4.05;;;23.10;99.90;;;27.33;51.43;101830.25;4938273;28;20070;-74
2022/06/12 05:29:31;;;;;;;20.00;3.80;;;25.10;99.90;;;27.88;48.16;101840.88;4961547;28;20035;-75
2022/06/12 05:31:59;;;;;;;24.90;4.30;;;25.70;99.90;;;26.04;50.80;101838.25;4943797;28;20035;-74
2022/06/12 05:34:29;;;;;;;16.13;3.60;;;25.30;99.90;;;24.59;53.33;101820.97;4932101;28;20106;-74
2022/06/12 05:36:56;;;;;;;23.80;4.03;;;24.60;99.90;;;23.57;56.31;101826.16;4963684;28;20037;-74
2022/06/12 05:39:23;;;;;;;20.48;3.95;;;23.90;99.90;;;22.85;58.41;101818.63;4946551;28;20038;-75
2022/06/12 05:41:52;;;;;;;18.25;3.60;;;23.30;99.90;;;22.32;60.55;101809.41;4939823;28;20031;-74
2022/06/12 05:44:19;;;;;;;17.40;3.75;;;22.80;99.90;;;21.97;62.22;101814.00;4943646;28;20034;-74
2022/06/12 05:46:46;;;;;;;15.98;3.72;;;22.50;99.90;;;22.57;61.72;101814.66;4952220;28;20109;-74
2022/06/12 05:49:13;;;;;;;20.02;3.70;;;22.60;99.90;;;22.73;59.98;101824.03;4964519;28;20027;-74
2022/06/12 05:51:40;;;;;;;16.58;3.65;;;23.10;99.90;;;23.59;57.32;101826.03;4952060;28;20104;-74
2022/06/12 05:54:07;;;;;;;16.25;3.45;;;23.30;99.90;;;23.12;57.71;101824.47;4937456;28;20034;-74
2022/06/12 05:56:34;;;;;;;20.83;3.80;;;23.20;99.90;;;22.66;59.51;101830.88;4947345;28;20026;-75
2022/06/12 05:59:00;;;;;;;22.25;3.80;;;23.00;99.90;;;22.20;59.90;101828.28;4950242;28;20030;-74
2022/06/12 06:01:27;;;;;;;27.70;3.92;;;22.70;99.90;;;22.04;61.60;101834.00;4946974;28;20430;-74
2022/06/12 06:03:54;;;;;;;22.95;3.83;;;23.00;99.90;;;23.98;56.79;101835.22;4944753;28;20471;-74
2022/06/12 06:06:29;;;;;;;20.38;4.00;;;24.00;99.90;;;26.36;51.18;101848.66;4944237;28;20046;-74
2022/06/12 06:08:56;;;;;;;17.77;3.85;;;25.70;99.90;;;29.01;44.82;101863.31;4947643;28;20027;-75
2022/06/12 06:11:23;;;;;;;19.75;3.55;;;27.60;99.80;;;30.76;41.30;101889.22;4954345;28;20486;-75
2022/06/12 06:13:49;;;;;;;21.20;3.55;;;29.10;97.00;;;31.30;39.56;101901.16;4943401;28;20491;-75
2022/06/12 06:16:15;;;;;;;18.95;4.13;;;29.80;96.10;;;30.82;40.27;101902.09;4941817;28;20034;-74
2022/06/12 06:18:44;;;;;;;17.48;3.45;;;29.80;93.60;;;30.04;40.36;101898.22;4939726;28;20070;-75
2022/06/12 06:21:14;;;;;;;15.93;3.55;;;29.80;94.00;;;31.07;39.22;101915.59;4960659;28;20039;-75
2022/06/12 06:23:41;;;;;;;15.77;3.40;;;30.10;93.90;;;30.48;40.04;101909.72;4945471;28;20046;-75
2022/06/12 06:26:08;;;;;;;13.98;3.20;;;29.90;92.50;;;30.21;39.85;101909.03;4951243;28;20050;-74
2022/06/12 06:28:36;;;;;;;20.20;3.97;;;30.00;93.30;;;30.99;39.73;101913.75;4950166;28;20652;-75
2022/06/12 06:31:02;;;;;;;13.20;3.17;;;30.50;92.10;;;32.12;36.30;101931.41;4950086;28;20042;-75
2022/06/12 06:33:28;;;;;;;13.00;2.90;;;31.40;92.20;;;33.15;35.22;101940.63;4941285;28;20027;-75
2022/06/12 06:35:54;;;;;;;14.70;3.33;;;32.20;89.10;;;33.73;34.62;101950.72;4947563;28;20521;-75
2022/06/12 06:38:20;;;;;;;18.10;3.08;;;32.30;83.70;;;32.81;33.87;101953.00;4954741;28;20027;-74
2022/06/12 06:40:47;;;;;;;13.30;3.03;;;31.60;84.40;;;31.02;36.36;101927.03;4944836;28;20035;-75
2022/06/12 06:43:13;;;;;;;13.65;2.63;;;31.10;88.30;;;30.05;37.76;101926.22;4942554;28;20406;-74
2022/06/12 06:48:26;;;;;;;11.27;2.45;;;29.00;83.40;;;27.68;39.52;101924.06;4957406;28;20029;-75
2022/06/12 06:50:52;;;;;;;13.05;2.53;;;28.00;84.70;;;26.53;40.46;101913.72;4967665;28;20507;-74
2022/06/12 06:53:21;;;;;;;15.82;2.70;;;27.50;90.50;;;27.33;41.38;101903.25;4944386;28;20097;-75
2022/06/12 06:55:48;;;;;;;12.05;2.83;;;27.20;90.80;;;26.59;41.43;101902.34;4944730;28;20023;-74
2022/06/12 06:58:20;;;;;;;13.93;3.15;;;27.20;91.00;;;27.58;39.97;101909.75;4949414;28;20042;-75
2022/06/12 07:00:48;;;;;;;16.55;2.75;;;27.80;88.90;;;29.02;37.31;101918.38;4949074;28;20064;-75
2022/06/12 07:03:15;;;;;;;12.88;2.75;;;28.70;90.00;;;29.90;36.04;101927.91;4953327;28;20826;-75
2022/06/12 07:05:43;;;;;;;12.48;2.65;;;29.50;86.20;;;30.42;35.91;101931.09;4963821;28;20039;-75
2022/06/12 07:08:10;;;;;;;11.57;2.38;;;29.80;84.20;;;30.19;35.19;101936.38;4934464;28;20094;-75
2022/06/12 07:10:36;;;;;;;15.13;2.60;;;29.80;83.10;;;30.34;34.71;101943.84;4947727;28;20562;-74
2022/06/12 07:13:03;;;;;;;13.20;2.75;;;30.20;84.30;;;30.88;34.88;101954.09;4952491;28;20038;-74
2022/06/12 07:15:31;;;;;;;13.93;2.47;;;30.20;82.50;;;30.50;35.97;101948.41;4934933;28;20487;-75
2022/06/12 07:18:00;;;;;;;20.70;3.05;;;30.10;83.40;;;29.93;36.05;101950.13;4943527;28;20085;-74
2022/06/12 07:20:32;;;;;;;10.05;2.17;;;29.30;82.50;;;28.22;37.85;101945.69;4953809;28;20039;-75
2022/06/12 07:22:59;;;;;;;10.70;2.38;;;28.90;82.90;;;28.01;37.25;101938.78;4931063;28;20365;-75
2022/06/12 07:25:25;;;;;;;10.68;2.50;;;28.60;84.70;;;28.02;37.65;101943.16;4947579;28;20053;-75
2022/06/12 07:27:51;;;;;;;14.05;3.17;;;28.20;86.10;;;27.67;38.70;101927.78;4949328;28;20035;-75
2022/06/12 07:30:22;;;;;;;12.27;2.35;;;27.80;86.70;;;27.04;39.01;101922.31;4949039;28;20022;-75
2022/06/12 07:32:51;;;;;;;15.05;2.83;;;27.60;88.00;;;27.13;40.31;101919.56;4946834;28;20034;-75
2022/06/12 07:35:18;;;;;;;11.23;2.42;;;27.30;89.00;;;26.84;40.90;101913.47;4950640;28;20526;-75
2022/06/12 07:37:46;;;;;;;15.48;2.67;;;27.10;88.10;;;26.65;40.79;101912.53;4943051;28;20531;-76
2022/06/12 07:40:20;;;;;;;14.77;3.35;;;27.10;89.50;;;27.01;39.31;101908.09;4950281;28;21026;-75
2022/06/12 07:42:46;;;;;;;12.93;2.65;;;27.20;87.00;;;27.08;38.63;101924.56;4950253;28;20387;-75
2022/06/12 07:45:14;;;;;;;11.50;2.67;;;27.50;86.10;;;28.04;37.08;101932.19;4970185;28;20506;-75
2022/06/12 07:47:39;;;;;;;12.45;2.30;;;27.50;85.60;;;26.70;39.17;101915.66;4945847;28;20057;-75
2022/06/12 07:50:07;;;;;;;14.48;3.03;;;26.90;85.80;;;25.77;40.75;101909.13;4949738;28;20579;-75
2022/06/12 07:52:34;;;;;;;13.40;2.83;;;26.40;85.90;;;25.29;41.23;101900.03;4946563;28;20022;-75
2022/06/12 07:55:00;;;;;;;15.88;2.75;;;26.70;90.60;;;27.03;40.81;101897.16;4948962;28;20029;-75
2022/06/12 07:57:26;;;;;;;15.13;2.92;;;27.20;87.50;;;27.45;38.43;101914.69;4952898;28;20030;-75
2022/06/12 07:59:52;;;;;;;15.00;2.75;;;27.60;88.60;;;28.06;38.86;101915.78;4939498;28;20022;-75
2022/06/12 08:02:18;;;;;;;11.65;2.53;;;28.10;89.00;;;28.87;38.36;101918.13;4950501;28;20030;-75
2022/06/12 08:04:44;;;;;;;9.35;2.60;;;28.70;88.20;;;29.30;37.14;101919.00;4950646;28;20047;-75
2022/06/12 08:07:10;;;;;;;14.77;3.05;;;29.10;85.20;;;29.32;36.10;101927.81;4954723;28;20069;-75
2022/06/12 08:09:36;;;;;;;14.50;2.80;;;29.40;85.50;;;30.11;35.91;101921.94;4962153;28;20033;-75
2022/06/12 08:12:02;;;;;;;12.75;2.85;;;29.90;85.30;;;30.60;34.49;101930.03;4952851;28;20038;-75
2022/06/12 08:14:28;;;;;;;14.93;2.95;;;29.80;80.60;;;29.45;36.58;101927.34;4948844;28;20484;-75
2022/06/12 08:16:54;;;;;;;12.68;2.40;;;29.50;80.60;;;29.19;36.59;101935.56;4948885;28;20034;-75
2022/06/12 08:22:08;;;;;;;14.30;2.80;;;29.70;83.90;;;30.18;36.17;101926.53;4948763;28;20045;-75
2022/06/12 08:24:35;;;;;;;13.52;2.80;;;30.00;82.80;;;30.17;35.30;101924.84;4933910;28;20494;-75
2022/06/12 08:27:01;;;;;;;15.98;3.13;;;30.00;82.50;;;29.69;35.13;101920.25;4948108;28;20046;-75
2022/06/12 08:29:28;;;;;;;17.98;2.70;;;29.50;81.80;;;28.99;36.52;101918.72;4981775;28;20561;-75
2022/06/12 08:32:05;;;;;;;13.57;3.10;;;29.20;83.50;;;28.50;37.13;101919.31;4938296;28;20019;-75
2022/06/12 08:34:55;;;;;;;11.40;2.72;;;28.80;84.40;;;28.33;37.51;101906.66;4938304;28;20023;-75
2022/06/12 08:37:28;;;;;;;15.90;3.33;;;28.40;83.50;;;27.73;39.08;101897.41;4964834;28;20026;-75
2022/06/12 08:39:54;;;;;;;27.65;3.38;;;28.20;86.50;;;27.85;38.84;101889.91;4943372;28;20042;-75
2022/06/12 08:42:56;;;;;;;16.00;3.17;;;28.20;86.70;;;27.93;38.99;101892.69;4955126;28;20863;-75
2022/06/12 08:45:29;;;;;;;15.05;3.22;;;28.20;86.00;;;27.78;39.11;101888.81;4945121;28;20131;-75
2022/06/12 08:48:31;;;;;;;17.15;2.85;;;28.10;87.50;;;27.69;39.23;101879.78;4932688;28;20022;-75
2022/06/12 08:51:18;;;;;;;15.20;2.78;;;28.00;87.80;;;27.68;40.40;101866.41;4938144;28;20117;-75
2022/06/12 08:53:57;;;;;;;12.50;2.60;;;27.90;86.30;;;27.67;38.62;101870.09;4946548;28;20403;-76
2022/06/12 08:56:50;;;;;;;17.25;3.25;;;27.90;87.10;;;27.60;39.35;101865.31;4946389;28;20398;-76
2022/06/12 08:59:24;;;;;;;16.67;3.40;;;27.80;86.10;;;27.60;38.66;101865.31;4966166;28;20038;-75
2022/06/12 09:01:53;;;;;;;16.08;3.33;;;27.80;85.20;;;27.41;39.06;101855.50;4964049;28;20037;-75
2022/06/12 09:04:23;;;;;;;17.25;3.30;;;27.80;86.20;;;27.66;39.02;101863.00;4947818;28;20031;-75
2022/06/12 09:07:34;;;;;;;14.40;2.85;;;27.90;88.60;;;28.01;40.05;101853.97;4943519;28;20603;-76
2022/06/12 09:10:41;;;;;;;14.25;3.15;;;28.10;86.70;;;28.15;38.66;101857.97;4950671;28;20026;-75
2022/06/12 09:13:33;;;;;;;17.95;3.60;;;28.40;86.10;;;28.39;38.34;101855.41;4950057;28;20045;-75
2022/06/12 09:17:04;;;;;;;13.02;3.15;;;28.60;86.80;;;28.38;37.63;101855.56;4946465;28;20034;-75
2022/06/12 09:19:36;;;;;;;22.50;4.05;;;28.20;82.50;;;27.07;40.05;101836.38;4886575;28;20420;-75
2022/06/12 09:22:16;;;;;;;16.77;3.47;;;28.10;85.00;;;27.37;39.96;101835.19;4903838;28;20207;-75
2022/06/12 09:25:10;;;;;;;13.88;2.85;;;28.10;86.40;;;27.70;39.50;101830.06;4951043;28;20428;-74
2022/06/12 09:28:03;;;;;;;16.90;3.42;;;28.30;86.60;;;28.06;38.87;101830.00;4949619;28;20066;-75
2022/06/12 09:31:17;;;;;;;14.55;2.88;;;28.50;83.70;;;28.15;38.16;101837.16;4976063;28;20027;-76
2022/06/12 09:33:58;;;;;;;20.27;3.83;;;28.70;85.40;;;28.36;38.45;101835.94;4935384;28;20026;-75
2022/06/12 09:36:48;;;;;;;15.70;3.67;;;28.80;84.50;;;28.54;37.85;101842.13;4962902;28;20027;-75
2022/06/12 09:39:43;;;;;;;19.33;3.80;;;28.90;83.70;;;28.64;37.47;101833.88;4963663;28;21241;-75
2022/06/12 09:42:22;;;;;;;15.40;3.22;;;29.10;84.80;;;28.81;36.85;101838.34;4962170;28;20057;-75
2022/06/12 09:45:00;;;;;;;19.45;3.83;;;29.10;82.10;;;28.27;37.20;101834.16;4918303;28;20027;-75
2022/06/12 09:47:58;;;;;;;19.50;3.72;;;28.70;83.40;;;28.08;38.06;101819.88;4960362;28;20117;-75
2022/06/12 09:51:02;;;;;;;15.30;3.75;;;28.70;84.80;;;28.36;38.13;101825.09;4946267;28;20030;-75
2022/06/12 09:54:13;;;;;;;20.98;4.18;;;29.00;87.90;;;28.93;38.65;101811.75;4948230;28;20372;-75
2022/06/12 09:57:05;;;;;;;16.27;3.08;;;29.40;84.20;;;29.50;36.39;101823.72;4946694;28;20022;-75
2022/06/12 10:00:05;;;;;;;20.35;3.78;;;29.80;82.90;;;29.64;36.04;101826.59;4948353;28;20035;-75
2022/06/12 10:02:56;;;;;;;15.07;3.58;;;30.10;83.40;;;29.84;36.55;101818.13;4949516;28;20096;-75
2022/06/12 10:06:28;;;;;;;16.25;3.72;;;30.10;83.10;;;29.78;36.31;101821.53;4961123;28;20043;-75
2022/06/12 10:09:22;;;;;;;15.10;3.55;;;30.10;82.70;;;29.45;36.90;101825.06;4882164;28;20043;-75
2022/06/12 10:12:24;;;;;;;17.95;3.80;;;29.80;81.90;;;28.99;36.76;101812.97;4867406;28;20119;-75
2022/06/12 10:15:02;;;;;;;14.90;3.45;;;29.40;83.50;;;28.67;38.00;101811.88;4946740;28;20027;-75
2022/06/12 10:18:06;;;;;;;16.10;3.58;;;29.20;81.50;;;28.56;36.42;101807.59;4936464;28;20099;-75
2022/06/12 10:20:43;;;;;;;17.33;3.78;;;29.00;83.80;;;28.54;39.82;101784.41;4943930;28;20045;-75
2022/06/12 10:23:09;;;;;;;19.58;3.83;;;29.00;85.30;;;28.79;38.43;101783.47;4969478;28;20030;-75
2022/06/12 10:25:41;;;;;;;16.52;3.70;;;29.20;84.70;;;29.02;38.35;101785.53;4946664;28;20408;-75
2022/06/12 10:28:15;;;;;;;17.17;3.53;;;29.40;84.20;;;29.17;38.38;101769.47;4940851;28;20529;-75
2022/06/12 10:31:08;;;;;;;17.65;3.42;;;29.50;83.80;;;29.12;38.46;101769.97;4961940;28;20073;-75
2022/06/12 10:33:51;;;;;;;17.88;3.70;;;29.50;82.90;;;28.97;37.82;101766.22;4929145;28;20022;-75
2022/06/12 10:36:29;;;;;;;14.82;3.53;;;29.40;84.70;;;28.84;38.83;101756.69;4965244;28;20109;-75
2022/06/12 10:39:20;;;;;;;15.55;3.90;;;29.30;82.40;;;28.57;37.88;101770.50;4928095;28;20463;-75
2022/06/12 10:41:58;;;;;;;15.88;2.95;;;28.80;83.30;;;27.97;38.73;101758.72;4928078;28;20114;-75
2022/06/12 10:44:56;;;;;;;13.02;3.25;;;28.30;85.10;;;27.16;40.88;101748.94;4973483;28;20500;-75
2022/06/12 10:47:29;;;;;;;17.77;3.47;;;28.00;86.10;;;27.23;40.81;101742.97;4950453;28;20438;-75
2022/06/12 10:50:21;;;;;;;17.55;3.70;;;27.80;86.00;;;27.12;40.00;101742.16;4932181;28;20552;-74
2022/06/12 10:52:51;;;;;;;12.93;2.95;;;27.60;86.80;;;27.01;41.31;101740.53;4961216;28;20034;-75
2022/06/12 10:55:35;;;;;;;15.77;3.88;;;27.50;86.50;;;26.88;41.84;101723.88;4955680;28;20027;-75